Time;durP1;ratioP1;P1;durP2;ratioP2;P2;SDS_P1;SDS_P2;PMS_P1;PMS_P2;Temp;Humidity;BMP_temperature;BMP_pressure;BME280_temperature;BME280_humidity;BME280_pressure;Samples;Min_cycle;Max_cycle;Signal;HPM_P1;HPM_P2
2021/12/22 00:00:49;;;;;;;4.63;3.33;;;;;;;24.84;31.10;97293.75;4978351;28;20097;-32
2021/12/22 00:03:15;;;;;;;7.22;3.35;;;;;;;24.83;31.05;97295.50;4955613;28;20034;-30
2021/12/22 00:05:45;;;;;;;6.72;3.40;;;;;;;24.82;31.44;97290.31;4973778;28;20092;-32
2021/12/22 00:08:13;;;;;;;4.68;3.47;;;;;;;24.83;31.28;97292.88;4983217;28;20123;-31
2021/12/22 00:10:42;;;;;;;4.63;3.20;;;;;;;24.84;31.10;97296.38;4982044;28;20775;-29
2021/12/22 00:13:07;;;;;;;4.55;3.28;;;;;;;24.83;31.22;97290.25;4955745;28;20467;-30
2021/12/22 00:15:33;;;;;;;3.17;2.65;;;;;;;24.78;31.36;97276.47;4973769;28;20041;-29
2021/12/22 00:17:58;;;;;;;6.53;3.38;;;;;;;24.83;31.14;97278.91;4974476;28;20159;-29
2021/12/22 00:20:23;;;;;;;4.68;3.45;;;;;;;24.82;31.21;97283.28;4983675;28;20104;-30
2021/12/22 00:22:49;;;;;;;4.22;3.10;;;;;;;24.82;31.15;97285.91;4974862;28;20034;-33
2021/12/22 00:25:15;;;;;;;5.60;3.50;;;;;;;24.82;31.05;97282.47;4960936;28;20033;-32
2021/12/22 00:27:41;;;;;;;6.32;3.05;;;;;;;24.82;31.03;97287.72;4982835;28;20018;-32
2021/12/22 00:30:07;;;;;;;4.47;3.00;;;;;;;24.82;31.05;97287.72;4975102;28;20029;-29
2021/12/22 00:32:35;;;;;;;6.22;3.65;;;;;;;24.82;31.22;97292.94;4971922;28;20380;-28
2021/12/22 00:35:00;;;;;;;4.63;3.05;;;;;;;24.81;31.03;97286.84;4944940;28;20046;-29
2021/12/22 00:37:27;;;;;;;5.63;3.10;;;;;;;24.81;30.92;97289.47;4974302;28;20048;-28
2021/12/22 00:39:53;;;;;;;5.57;2.90;;;;;;;24.80;30.84;97285.97;4959307;28;20042;-30
2021/12/22 00:42:18;;;;;;;5.53;3.17;;;;;;;24.81;31.01;97284.22;4969761;28;20061;-29
2021/12/22 00:44:46;;;;;;;5.05;3.17;;;;;;;24.82;30.86;97298.19;4977407;28;20453;-30
2021/12/22 00:47:12;;;;;;;4.45;2.97;;;;;;;24.79;30.94;97294.75;4963244;28;20127;-32
2021/12/22 00:49:37;;;;;;;4.07;3.10;;;;;;;24.80;31.11;97285.16;4981901;28;20689;-30
2021/12/22 00:52:03;;;;;;;6.28;2.85;;;;;;;24.80;30.90;97290.38;4975388;28;20685;-30
2021/12/22 00:54:28;;;;;;;3.67;2.70;;;;;;;24.80;31.10;97295.63;4971258;28;20990;-29
2021/12/22 00:57:00;;;;;;;3.50;2.85;;;;;;;24.79;31.04;97297.38;4940276;28;20076;-29
2021/12/22 00:59:26;;;;;;;4.15;3.00;;;;;;;24.79;31.15;97289.53;4974268;28;20385;-29
2021/12/22 01:01:51;;;;;;;5.03;2.85;;;;;;;24.79;31.03;97294.75;4971391;28;20038;-31
2021/12/22 01:04:18;;;;;;;3.78;2.88;;;;;;;24.78;30.94;97298.31;4973340;28;20037;-31
2021/12/22 01:06:44;;;;;;;7.32;3.03;;;;;;;24.78;31.03;97298.31;4983207;28;20057;-30
2021/12/22 01:09:09;;;;;;;5.93;2.55;;;;;;;24.78;30.93;97303.56;4983662;28;20052;-29
2021/12/22 01:11:34;;;;;;;3.72;2.63;;;;;;;24.79;30.78;97288.69;4942420;28;20032;-36
2021/12/22 01:14:00;;;;;;;3.70;2.90;;;;;;;24.77;30.81;97286.13;4972871;28;20041;-32
2021/12/22 01:16:25;;;;;;;4.05;2.90;;;;;;;24.79;30.84;97296.56;4976206;28;20044;-30
2021/12/22 01:18:51;;;;;;;3.63;2.80;;;;;;;24.77;31.11;97301.84;4972534;28;20276;-29
2021/12/22 01:21:44;;;;;;;3.47;2.45;;;;;;;24.77;30.76;97304.47;4973878;28;20041;-27
2021/12/22 01:24:16;;;;;;;4.88;2.40;;;;;;;24.76;30.96;97300.16;4958799;28;20761;-31
2021/12/22 01:26:46;;;;;;;;;;;;;;;24.75;31.02;97298.41;4973009;28;20081;-28
2021/12/22 01:29:12;;;;;;;3.92;2.45;;;;;;;24.76;31.00;97294.91;4971785;28;19976;-31
2021/12/22 01:31:40;;;;;;;3.25;2.70;;;;;;;24.75;31.03;97303.66;4970148;28;20030;-30
2021/12/22 01:34:05;;;;;;;5.30;2.90;;;;;;;24.75;30.94;97302.84;4975194;28;20121;-31
2021/12/22 01:36:31;;;;;;;4.53;2.58;;;;;;;24.74;30.84;97298.47;4972131;28;20385;-28
2021/12/22 01:38:56;;;;;;;3.92;2.50;;;;;;;24.74;30.76;97304.59;4969421;28;20065;-28
2021/12/22 01:41:22;;;;;;;2.90;2.40;;;;;;;24.74;30.98;97296.72;4973702;28;20022;-34
2021/12/22 01:43:48;;;;;;;4.93;2.67;;;;;;;24.73;30.84;97300.28;4971127;28;20041;-28
2021/12/22 01:49:14;;;;;;;3.47;2.45;;;;;;;24.73;30.75;97302.03;4971306;28;20041;-32
2021/12/22 01:51:56;;;;;;;2.63;2.20;;;;;;;24.72;30.94;97308.19;4961976;28;20022;-32
2021/12/22 01:54:28;;;;;;;3.78;2.65;;;;;;;24.71;30.79;97302.09;4975805;28;20124;-30
2021/12/22 01:56:54;;;;;;;3.40;2.40;;;;;;;24.72;30.99;97308.19;4980214;28;20957;-32
2021/12/22 01:59:20;;;;;;;4.00;2.40;;;;;;;24.73;30.65;97305.50;4965237;28;20026;-29
2021/12/22 02:01:46;;;;;;;3.47;2.60;;;;;;;24.71;30.73;97299.47;4959613;28;20026;-28
2021/12/22 02:04:12;;;;;;;5.00;2.10;;;;;;;24.71;30.86;97307.31;4974501;28;20510;-29
2021/12/22 02:06:41;;;;;;;3.90;2.50;;;;;;;24.62;30.76;97298.09;4979960;28;20467;-31
2021/12/22 02:09:09;;;;;;;3.70;2.38;;;;;;;24.65;30.86;97299.72;4958324;28;20137;-31
2021/12/22 02:11:34;;;;;;;3.70;2.50;;;;;;;24.70;30.92;97308.25;4980088;28;20029;-30
2021/12/22 02:14:03;;;;;;;3.22;2.30;;;;;;;24.69;30.80;97303.94;4981120;28;20041;-28
2021/12/22 02:16:32;;;;;;;2.83;2.08;;;;;;;24.70;30.77;97305.63;4966349;28;20113;-32
2021/12/22 02:18:59;;;;;;;2.83;2.30;;;;;;;24.70;30.66;97299.56;4963083;28;20034;-30
2021/12/22 02:21:27;;;;;;;3.97;2.08;;;;;;;24.69;30.71;97296.06;4982758;28;20536;-27
2021/12/22 02:23:53;;;;;;;2.60;2.15;;;;;;;24.69;30.66;97296.06;4964287;28;20146;-30
2021/12/22 02:26:34;;;;;;;3.15;2.50;;;;;;;24.69;30.96;97300.44;4987307;28;21273;-29
2021/12/22 02:29:04;;;;;;;4.15;2.22;;;;;;;24.69;30.89;97300.44;4957433;28;20029;-28
2021/12/22 02:31:33;;;;;;;3.88;2.08;;;;;;;24.69;30.54;97298.69;4980747;28;20119;-28
2021/12/22 02:33:59;;;;;;;2.60;1.90;;;;;;;24.68;30.84;97297.00;4982016;28;21838;-33
2021/12/22 02:36:28;;;;;;;2.88;2.20;;;;;;;24.67;30.74;97290.00;4981743;28;20109;-28
2021/12/22 02:38:58;;;;;;;5.70;2.33;;;;;;;24.67;30.88;97290.88;4980431;28;20044;-30
2021/12/22 02:41:27;;;;;;;2.47;2.00;;;;;;;24.67;30.79;97287.41;4984752;28;20038;-32
2021/12/22 02:43:54;;;;;;;2.67;1.98;;;;;;;24.67;30.81;97284.78;4968935;28;20044;-34
2021/12/22 02:46:31;;;;;;;3.72;2.08;;;;;;;24.66;30.58;97291.81;4980395;28;20053;-30
2021/12/22 02:48:57;;;;;;;3.00;2.00;;;;;;;24.65;30.75;97286.63;4979133;28;20054;-28
2021/12/22 02:51:23;;;;;;;3.22;1.70;;;;;;;24.66;30.85;97301.41;4981260;28;20045;-30
2021/12/22 03:02:14;;;;;;;2.45;1.90;;;;;;;24.66;30.69;97296.19;4982075;28;20085;-32
2021/12/22 03:04:52;;;;;;;2.35;1.90;;;;;;;24.64;30.55;97292.78;4971026;28;20026;-32
2021/12/22 03:07:19;;;;;;;2.13;1.60;;;;;;;24.63;30.63;97289.28;4989897;28;20018;-30
2021/12/22 03:09:45;;;;;;;2.85;1.90;;;;;;;24.63;30.52;97288.44;4974140;28;20034;-30
2021/12/22 03:12:12;;;;;;;2.83;2.10;;;;;;;24.63;30.59;97288.44;4984377;28;20085;-29
2021/12/22 03:14:38;;;;;;;3.22;2.08;;;;;;;24.62;30.50;97289.34;4982122;28;20030;-28
2021/12/22 03:17:03;;;;;;;2.25;1.70;;;;;;;24.62;30.51;97297.22;4982509;28;20484;-28
2021/12/22 03:19:30;;;;;;;2.70;2.00;;;;;;;24.61;30.54;97295.50;4984627;28;20029;-28
2021/12/22 03:22:04;;;;;;;3.90;1.90;;;;;;;24.61;30.70;97303.38;4983591;28;20030;-28
2021/12/22 03:24:31;;;;;;;3.33;1.60;;;;;;;24.61;30.65;97304.25;4983029;28;20037;-30
2021/12/22 03:26:59;;;;;;;2.10;1.70;;;;;;;24.61;30.74;97290.28;4981697;28;20033;-31
2021/12/22 03:29:25;;;;;;;2.38;1.80;;;;;;;24.61;30.62;97290.28;4984377;28;20054;-28
2021/12/22 03:31:50;;;;;;;2.20;1.70;;;;;;;24.60;30.56;97291.19;4980975;28;20049;-29
2021/12/22 03:34:16;;;;;;;2.17;1.85;;;;;;;24.60;30.59;97292.03;4983417;28;20104;-28
2021/12/22 03:36:42;;;;;;;3.00;1.70;;;;;;;24.60;30.80;97283.34;4982073;28;20030;-28
2021/12/22 03:39:08;;;;;;;3.08;1.77;;;;;;;24.60;30.52;97299.06;4983785;28;20032;-29
2021/12/22 03:41:35;;;;;;;5.55;1.80;;;;;;;24.59;30.71;97297.34;4982331;28;20026;-29
2021/12/22 03:44:01;;;;;;;2.17;1.60;;;;;;;24.59;30.55;97302.59;4979659;28;20045;-28
2021/12/22 03:46:26;;;;;;;2.85;1.77;;;;;;;24.58;30.60;97298.25;4982139;28;20601;-28
2021/12/22 03:48:52;;;;;;;1.90;1.73;;;;;;;24.58;30.50;97303.50;4981774;28;20034;-31
2021/12/22 03:51:17;;;;;;;4.30;1.70;;;;;;;24.58;30.67;97306.09;4983018;28;20062;-30
2021/12/22 03:53:43;;;;;;;2.10;1.77;;;;;;;24.59;30.58;97302.59;4982679;28;20042;-29
2021/12/22 03:56:08;;;;;;;2.38;1.70;;;;;;;24.58;30.57;97309.59;4981726;28;20033;-28
2021/12/22 03:58:33;;;;;;;2.33;1.75;;;;;;;24.58;30.73;97306.09;4980606;28;20033;-27
2021/12/22 04:00:59;;;;;;;2.83;1.60;;;;;;;24.58;30.67;97311.34;4979178;28;20568;-29
2021/12/22 04:03:28;;;;;;;2.08;1.50;;;;;;;24.57;30.46;97307.03;4981354;28;20048;-29
2021/12/22 04:05:54;;;;;;;2.63;1.80;;;;;;;24.56;30.58;97307.94;4979370;28;20077;-29
2021/12/22 04:08:19;;;;;;;1.95;1.55;;;;;;;24.55;30.66;97308.88;4979240;28;20673;-32
2021/12/22 04:10:48;;;;;;;1.77;1.58;;;;;;;24.56;30.65;97313.19;4980310;28;20443;-29
2021/12/22 04:13:14;;;;;;;2.78;1.70;;;;;;;24.55;30.75;97306.25;4952739;28;20027;-32
2021/12/22 04:15:39;;;;;;;7.05;2.47;;;;;;;24.55;30.38;97311.50;4961937;28;20737;-31
2021/12/22 04:18:04;;;;;;;4.50;2.80;;;;;;;24.53;30.32;97306.31;4982035;28;20033;-29
2021/12/22 04:20:30;;;;;;;3.72;2.05;;;;;;;24.52;30.33;97308.06;4980855;28;20061;-29
2021/12/22 04:22:56;;;;;;;2.72;1.67;;;;;;;24.50;30.38;97307.28;4978325;28;20125;-32
2021/12/22 04:25:21;;;;;;;3.03;1.85;;;;;;;24.50;30.62;97298.56;4982078;28;20030;-31
2021/12/22 04:27:48;;;;;;;3.22;1.90;;;;;;;24.50;30.44;97299.44;4966360;28;20037;-32
2021/12/22 04:30:14;;;;;;;4.63;1.60;;;;;;;24.50;30.64;97291.56;4977724;28;20044;-30
2021/12/22 04:32:39;;;;;;;3.22;1.90;;;;;;;24.50;30.50;97301.19;4981526;28;22573;-28
2021/12/22 04:35:04;;;;;;;2.15;1.80;;;;;;;24.49;30.60;97297.69;4980233;28;20316;-28
2021/12/22 04:37:30;;;;;;;1.98;1.60;;;;;;;24.49;30.50;97289.84;4979012;28;20606;-32
2021/12/22 04:39:55;;;;;;;1.83;1.35;;;;;;;24.49;30.41;97281.97;4982668;28;20061;-32
2021/12/22 04:42:21;;;;;;;3.05;1.35;;;;;;;24.49;30.62;97287.22;4987785;28;20026;-27
2021/12/22 04:44:46;;;;;;;2.53;1.70;;;;;;;24.48;30.37;97280.28;4980780;28;20064;-42
2021/12/22 04:47:12;;;;;;;1.90;1.50;;;;;;;24.49;30.63;97283.78;4979890;28;20041;-29
2021/12/22 04:49:39;;;;;;;1.95;1.40;;;;;;;24.48;30.62;97285.53;4983511;28;20041;-31
2021/12/22 04:52:07;;;;;;;2.03;1.52;;;;;;;24.49;30.50;97281.16;4979425;28;20057;-30
2021/12/22 04:54:43;;;;;;;2.40;1.50;;;;;;;24.48;30.62;97285.53;4981877;28;20702;-30
2021/12/22 04:57:08;;;;;;;2.20;1.48;;;;;;;24.48;30.48;97284.69;4981879;28;20034;-30
2021/12/22 04:59:33;;;;;;;1.92;1.45;;;;;;;24.48;30.65;97280.28;4978798;28;20060;-31
2021/12/22 05:01:59;;;;;;;2.97;1.67;;;;;;;24.47;30.70;97278.59;4965245;28;20770;-31
2021/12/22 05:04:24;;;;;;;3.72;1.60;;;;;;;24.47;30.64;97278.59;4981074;28;20037;-29
2021/12/22 05:06:50;;;;;;;2.42;1.40;;;;;;;24.47;30.52;97273.34;4982166;28;20311;-29
2021/12/22 05:09:15;;;;;;;1.73;1.35;;;;;;;24.46;30.49;97274.25;4970839;28;20026;-28
2021/12/22 05:11:41;;;;;;;1.92;1.35;;;;;;;24.46;30.66;97271.66;4981165;28;20022;-29
2021/12/22 05:14:08;;;;;;;2.30;1.48;;;;;;;24.47;30.43;97281.19;4981583;28;20022;-29
2021/12/22 05:16:33;;;;;;;2.15;1.40;;;;;;;24.47;30.58;97278.59;4980048;28;20933;-29
2021/12/22 05:19:15;;;;;;;1.63;1.30;;;;;;;24.46;30.42;97284.75;4978976;28;20034;-27
2021/12/22 05:21:43;;;;;;;1.60;1.40;;;;;;;24.45;30.39;97290.91;4979450;28;20029;-28
2021/12/22 05:24:08;;;;;;;1.90;1.50;;;;;;;24.44;30.44;97286.56;4979430;28;20058;-26
2021/12/22 05:26:34;;;;;;;1.75;1.50;;;;;;;24.45;30.36;97285.66;4961939;28;20022;-29
2021/12/22 05:28:59;;;;;;;2.22;1.48;;;;;;;24.45;30.54;97284.81;4976863;28;20074;-33
2021/12/22 05:31:25;;;;;;;1.70;1.50;;;;;;;24.44;30.49;97283.94;4932069;28;20053;-25
2021/12/22 05:33:51;;;;;;;2.63;1.50;;;;;;;24.45;30.39;97290.91;4978786;28;20057;-33
2021/12/22 05:36:16;;;;;;;4.35;1.58;;;;;;;24.44;30.50;97294.41;4977512;28;20049;-30
2021/12/22 05:38:42;;;;;;;1.63;1.38;;;;;;;24.43;30.63;97292.72;4980763;28;20023;-31
2021/12/22 05:41:07;;;;;;;2.63;1.30;;;;;;;24.44;30.47;97301.44;4975203;28;20041;-29
2021/12/22 05:43:32;;;;;;;1.50;1.20;;;;;;;24.44;30.47;97302.28;4980746;28;20061;-29
2021/12/22 05:45:58;;;;;;;1.38;1.23;;;;;;;24.42;30.52;97298.00;4981491;28;20037;-29
2021/12/22 05:48:24;;;;;;;1.92;1.35;;;;;;;24.43;30.52;97297.97;4965365;28;20492;-30
2021/12/22 05:50:51;;;;;;;1.50;1.10;;;;;;;24.43;30.60;97297.97;4962411;28;21845;-31
2021/12/22 05:53:17;;;;;;;1.67;1.20;;;;;;;24.43;30.49;97308.44;4981605;28;20675;-31
2021/12/22 05:55:43;;;;;;;2.38;1.20;;;;;;;24.44;30.50;97304.91;4980757;28;20026;-26
2021/12/22 05:58:08;;;;;;;2.97;1.58;;;;;;;24.43;30.39;97300.56;4979554;28;20999;-27
2021/12/22 06:00:34;;;;;;;3.00;1.50;;;;;;;24.43;30.59;97297.97;4980963;28;20038;-28
2021/12/22 06:02:59;;;;;;;2.35;1.40;;;;;;;24.44;30.34;97297.03;4980901;28;20030;-31
2021/12/22 06:05:25;;;;;;;1.30;1.10;;;;;;;24.44;30.46;97297.03;4982319;28;20041;-30
2021/12/22 06:07:50;;;;;;;1.45;1.30;;;;;;;24.45;30.48;97295.28;4980331;28;20511;-30
2021/12/22 06:10:15;;;;;;;1.35;1.13;;;;;;;24.43;30.60;97297.97;4980797;28;20034;-33
2021/12/22 06:12:41;;;;;;;1.90;1.30;;;;;;;24.44;30.51;97298.81;4945374;28;20042;-26
2021/12/22 06:15:06;;;;;;;1.63;1.23;;;;;;;24.44;30.37;97298.81;4981239;28;20048;-28
2021/12/22 06:17:32;;;;;;;1.30;1.15;;;;;;;24.44;30.37;97299.66;4978557;28;20156;-30
2021/12/22 06:19:57;;;;;;;2.25;1.40;;;;;;;24.45;30.51;97295.28;4978909;28;20081;-28
2021/12/22 06:22:23;;;;;;;1.73;1.35;;;;;;;24.44;30.60;97289.19;4979131;28;20084;-29
2021/12/22 06:24:49;;;;;;;1.65;1.40;;;;;;;24.46;30.59;97296.97;4979066;28;20037;-27
2021/12/22 06:27:14;;;;;;;2.47;1.23;;;;;;;24.45;30.43;97303.13;4984106;28;20036;-33
2021/12/22 06:29:40;;;;;;;1.98;1.55;;;;;;;24.45;30.47;97311.88;4986536;28;20209;-28
2021/12/22 06:32:05;;;;;;;1.25;1.02;;;;;;;24.45;30.56;97290.03;4964245;28;20038;-28
2021/12/22 06:34:31;;;;;;;1.88;1.27;;;;;;;24.44;30.54;97294.41;4966570;28;20404;-29
2021/12/22 06:36:56;;;;;;;1.60;1.20;;;;;;;24.43;30.44;97292.72;4963590;28;20415;-26
2021/12/22 06:39:22;;;;;;;2.85;1.50;;;;;;;24.46;30.41;97300.47;4967014;28;20034;-28
2021/12/22 06:41:48;;;;;;;2.05;1.38;;;;;;;24.45;30.55;97293.53;4968907;28;20413;-28
2021/12/22 06:44:14;;;;;;;1.70;1.25;;;;;;;24.45;30.40;97295.28;4966594;28;20208;-28
2021/12/22 06:46:41;;;;;;;2.60;1.35;;;;;;;24.46;30.47;97303.09;4964911;28;20072;-29
2021/12/22 06:49:07;;;;;;;1.90;1.40;;;;;;;24.46;30.41;97313.56;4982446;28;20044;-27
2021/12/22 06:51:33;;;;;;;1.60;1.30;;;;;;;24.47;30.53;97315.25;4983289;28;20801;-27
2021/12/22 06:53:58;;;;;;;1.77;1.38;;;;;;;24.47;30.58;97304.78;4962882;28;20044;-27
2021/12/22 06:56:23;;;;;;;1.92;1.45;;;;;;;24.47;30.49;97299.53;4982663;28;20034;-27
2021/12/22 06:58:49;;;;;;;1.27;1.15;;;;;;;24.47;30.42;97293.44;4983240;28;20475;-30
2021/12/22 07:01:18;;;;;;;1.35;1.15;;;;;;;24.48;30.26;97296.00;4983315;28;20535;-29
2021/12/22 07:03:44;;;;;;;1.88;1.10;;;;;;;24.48;30.35;97296.00;4983622;28;20093;-29
2021/12/22 07:06:09;;;;;;;1.55;1.13;;;;;;;24.48;30.56;97308.28;4981651;28;20022;-28
2021/12/22 07:08:35;;;;;;;1.80;1.33;;;;;;;24.48;30.54;97301.25;4983318;28;20038;-29
2021/12/22 07:11:00;;;;;;;1.63;0.98;;;;;;;24.48;30.55;97300.41;4987486;28;20038;-30
2021/12/22 07:13:26;;;;;;;2.95;1.17;;;;;;;24.48;30.37;97298.63;4973173;28;20037;-28
2021/12/22 07:15:51;;;;;;;1.63;1.25;;;;;;;24.48;30.31;97301.25;4989266;28;20040;-31
2021/12/22 07:18:17;;;;;;;1.23;1.10;;;;;;;24.49;30.46;97308.19;4990110;28;20030;-31
2021/12/22 07:20:42;;;;;;;3.97;1.95;;;;;;;24.49;30.33;97305.56;4988829;28;20662;-30
2021/12/22 07:23:08;;;;;;;2.83;1.75;;;;;;;24.48;30.31;97311.72;4990163;28;20038;-32
2021/12/22 07:25:33;;;;;;;2.70;1.95;;;;;;;24.48;30.28;97309.09;4990307;28;20042;-30
2021/12/22 07:27:58;;;;;;;4.13;1.50;;;;;;;24.49;30.44;97312.59;4971600;28;20107;-29
2021/12/22 07:30:24;;;;;;;1.50;1.20;;;;;;;24.47;30.29;97322.25;4987212;28;20516;-29
2021/12/22 07:32:50;;;;;;;2.08;1.50;;;;;;;24.47;30.32;97320.50;4981494;28;20118;-31
2021/12/22 07:35:24;;;;;;;1.85;1.55;;;;;;;24.48;30.35;97330.06;4989662;28;20083;-29
2021/12/22 07:38:30;;;;;;;2.83;1.48;;;;;;;24.49;30.44;97334.38;4990699;28;20037;-31
2021/12/22 07:40:59;;;;;;;2.17;1.60;;;;;;;24.48;30.26;97337.91;4952782;28;20563;-31
2021/12/22 07:43:24;;;;;;;3.00;2.05;;;;;;;24.50;30.44;97335.25;4978693;28;21697;-27
2021/12/22 07:45:50;;;;;;;8.57;2.85;;;;;;;24.50;30.32;97343.97;4987603;28;20030;-29
2021/12/22 07:48:15;;;;;;;13.45;3.92;;;;;;;24.50;30.27;97338.72;4974035;28;20851;-27
2021/12/22 07:50:41;;;;;;;11.00;3.97;;;;;;;24.50;30.22;97335.25;4943063;28;20568;-27
2021/12/22 07:53:06;;;;;;;12.10;4.60;;;;;;;24.49;30.28;97334.38;4956936;28;20081;-31
2021/12/22 07:55:32;;;;;;;11.65;4.35;;;;;;;24.48;30.06;97337.91;4983586;28;20026;-32
2021/12/22 07:57:58;;;;;;;15.30;5.45;;;;;;;24.48;29.60;97343.16;4961618;28;20050;-30
2021/12/22 08:00:24;;;;;;;13.73;6.47;;;;;;;24.47;28.67;97344.09;4982086;28;20029;-27
2021/12/22 08:02:49;;;;;;;14.65;6.28;;;;;;;24.44;27.84;97333.72;4982123;28;20030;-28
2021/12/22 08:05:15;;;;;;;14.30;6.28;;;;;;;24.41;27.61;97336.47;4948386;28;20046;-33
2021/12/22 08:07:40;;;;;;;11.10;6.53;;;;;;;24.40;27.55;97346.09;4944720;28;20823;-27
2021/12/22 08:10:07;;;;;;;14.60;7.13;;;;;;;24.38;27.09;97347.06;4983482;28;20060;-28
2021/12/22 08:12:32;;;;;;;17.17;6.72;;;;;;;24.36;26.88;97348.88;4958668;28;20376;-30
2021/12/22 08:14:58;;;;;;;11.57;6.43;;;;;;;24.34;26.85;97343.72;4978194;28;20030;-31
2021/12/22 08:17:23;;;;;;;11.68;6.07;;;;;;;24.33;26.59;97341.97;4959561;28;20037;-34
2021/12/22 08:19:49;;;;;;;14.13;6.43;;;;;;;24.31;26.38;97335.09;4979497;28;20036;-29
2021/12/22 08:22:15;;;;;;;11.35;6.45;;;;;;;24.30;26.21;97338.63;4977567;28;20489;-33
2021/12/22 08:24:40;;;;;;;11.38;6.30;;;;;;;24.27;26.17;97331.75;4963666;28;20030;-34
2021/12/22 08:27:05;;;;;;;11.35;7.57;;;;;;;24.27;26.19;97343.09;4965837;28;20530;-31
2021/12/22 08:29:31;;;;;;;11.05;4.47;;;;;;;24.27;26.58;97337.84;4965209;28;20037;-27
2021/12/22 08:31:56;;;;;;;11.05;4.13;;;;;;;24.26;27.36;97330.06;4969475;28;20087;-33
2021/12/22 08:34:26;;;;;;;6.30;3.90;;;;;;;24.29;27.92;97337.78;4959101;28;20091;-29
2021/12/22 08:39:36;;;;;;;9.82;4.25;;;;;;;24.34;28.49;97342.84;4961535;28;20092;-28
2021/12/22 08:42:02;;;;;;;10.05;4.00;;;;;;;24.36;28.99;97343.63;4966578;28;20341;-34
2021/12/22 08:44:27;;;;;;;10.55;4.28;;;;;;;24.38;29.17;97339.19;4977699;28;20042;-30
2021/12/22 08:46:54;;;;;;;9.02;3.75;;;;;;;24.40;29.22;97345.22;4977637;28;20439;-27
2021/12/22 08:49:21;;;;;;;8.98;3.80;;;;;;;24.41;29.20;97341.72;4979936;28;21658;-32
2021/12/22 08:51:47;;;;;;;11.13;4.30;;;;;;;24.43;29.41;97339.88;4981624;28;20022;-28
2021/12/22 08:54:13;;;;;;;8.70;3.88;;;;;;;24.45;29.41;97334.56;4977206;28;20030;-28
2021/12/22 08:56:38;;;;;;;8.85;3.97;;;;;;;24.46;29.56;97329.28;4977211;28;20402;-26
2021/12/22 08:59:04;;;;;;;6.97;3.72;;;;;;;24.47;29.56;97323.13;4980082;28;20135;-28
2021/12/22 09:01:30;;;;;;;6.43;3.78;;;;;;;24.50;29.43;97323.00;4979011;28;20089;-28
2021/12/22 09:03:55;;;;;;;10.50;3.78;;;;;;;24.51;29.51;97316.84;4976929;28;20038;-26
2021/12/22 09:06:21;;;;;;;8.40;3.45;;;;;;;24.55;29.60;97321.97;4964389;28;20033;-28
2021/12/22 09:08:46;;;;;;;6.30;3.17;;;;;;;24.56;29.68;97311.41;4987312;28;20745;-28
2021/12/22 09:11:12;;;;;;;6.40;3.45;;;;;;;24.60;29.69;97322.63;4980653;28;20586;-26
2021/12/22 09:13:39;;;;;;;8.13;3.50;;;;;;;24.57;29.61;97312.28;4962189;28;20113;-31
2021/12/22 09:16:05;;;;;;;7.72;3.72;;;;;;;24.65;29.75;97323.31;4979715;28;20034;-26
2021/12/22 09:18:30;;;;;;;5.90;3.22;;;;;;;24.69;29.61;97324.03;4982172;28;20040;-28
2021/12/22 09:20:55;;;;;;;5.55;3.03;;;;;;;24.71;29.71;97324.84;4978530;28;20572;-30
2021/12/22 09:23:21;;;;;;;7.25;3.38;;;;;;;24.74;29.64;97325.56;4965251;28;20132;-31
2021/12/22 09:25:46;;;;;;;6.82;3.35;;;;;;;24.75;29.69;97324.63;4980060;28;20582;-29
2021/12/22 09:28:13;;;;;;;5.65;3.63;;;;;;;24.78;29.91;97327.13;4983177;28;20025;-30
2021/12/22 09:30:40;;;;;;;19.20;11.10;;;;;;;24.70;22.28;97331.84;4963534;28;20128;-30
2021/12/22 09:33:07;;;;;;;12.35;10.98;;;;;;;24.45;18.92;97322.34;4984663;28;20029;-31
2021/12/22 09:35:32;;;;;;;13.27;11.48;;;;;;;24.10;17.76;97322.75;4973083;28;20084;-30
2021/12/22 09:37:58;;;;;;;17.15;10.50;;;;;;;23.79;19.36;97317.81;4984255;28;20026;-29
2021/12/22 09:40:23;;;;;;;11.93;8.68;;;;;;;23.56;20.81;97322.09;4981024;28;20045;-29
2021/12/22 09:42:49;;;;;;;11.68;7.88;;;;;;;23.46;21.81;97316.34;4980775;28;20033;-30
2021/12/22 09:45:15;;;;;;;12.07;7.70;;;;;;;23.40;22.74;97311.28;4969748;28;20030;-28
2021/12/22 09:47:59;;;;;;;12.40;7.10;;;;;;;23.39;23.65;97314.81;4980269;28;20030;-27
2021/12/22 09:50:38;;;;;;;10.02;6.50;;;;;;;23.39;23.82;97305.22;4980977;28;20034;-28
2021/12/22 09:53:03;;;;;;;9.15;5.93;;;;;;;23.44;24.40;97303.31;4979486;28;20146;-29
2021/12/22 09:55:33;;;;;;;10.07;5.20;;;;;;;23.49;24.49;97305.78;4981310;28;20037;-29
2021/12/22 09:58:00;;;;;;;11.50;5.20;;;;;;;23.54;24.79;97297.75;4953335;28;20025;-30
2021/12/22 10:00:25;;;;;;;8.63;5.38;;;;;;;23.60;25.27;97303.59;4972042;28;20056;-28
2021/12/22 10:02:51;;;;;;;9.73;4.85;;;;;;;23.65;25.37;97306.06;4988826;28;20033;-27
2021/12/22 10:05:16;;;;;;;9.60;5.13;;;;;;;23.71;25.26;97305.84;4986604;28;20484;-30
2021/12/22 10:07:44;;;;;;;13.10;5.13;;;;;;;23.79;25.52;97307.34;4990886;28;20023;-28
2021/12/22 10:10:10;;;;;;;10.98;5.05;;;;;;;23.84;26.00;97301.00;4969861;28;20041;-28
2021/12/22 10:12:36;;;;;;;12.05;4.80;;;;;;;23.88;26.10;97307.81;4984773;28;20048;-29
2021/12/22 10:15:04;;;;;;;9.52;4.75;;;;;;;23.94;26.06;97306.75;4967570;28;20033;-30
2021/12/22 10:17:41;;;;;;;7.45;4.30;;;;;;;24.00;26.32;97310.91;4989000;28;20022;-31
2021/12/22 10:20:09;;;;;;;10.68;4.28;;;;;;;24.06;26.44;97299.34;4967865;28;20109;-29
2021/12/22 10:22:43;;;;;;;8.85;4.68;;;;;;;24.10;26.65;97291.34;4968674;28;20041;-28
2021/12/22 10:25:14;;;;;;;10.82;4.35;;;;;;;24.16;26.64;97292.88;4986870;28;20034;-28
2021/12/22 10:27:41;;;;;;;13.02;4.10;;;;;;;24.20;27.02;97289.22;4958427;28;20030;-30
2021/12/22 10:30:20;;;;;;;6.97;3.63;;;;;;;24.25;27.25;97289.91;4990855;28;20158;-28
2021/12/22 10:32:46;;;;;;;8.35;3.85;;;;;;;24.30;27.20;97281.88;4989319;28;20124;-30
2021/12/22 10:35:11;;;;;;;10.38;3.85;;;;;;;24.33;27.20;97273.88;4990866;28;20026;-29
2021/12/22 10:37:38;;;;;;;7.57;3.60;;;;;;;24.38;27.43;97276.34;4986942;28;20318;-32
2021/12/22 10:40:29;;;;;;;10.25;3.75;;;;;;;24.42;27.72;97270.06;4982669;28;20114;-29
2021/12/22 10:42:55;;;;;;;10.97;4.30;;;;;;;24.46;27.90;97262.91;4987592;28;20190;-27
2021/12/22 10:45:22;;;;;;;8.07;3.58;;;;;;;24.49;27.93;97262.81;4986879;28;20793;-30
2021/12/22 10:50:39;;;;;;;7.63;3.78;;;;;;;24.54;27.93;97247.75;4985108;28;20566;-27
2021/12/22 10:53:06;;;;;;;8.25;3.90;;;;;;;24.57;27.93;97236.28;4964598;28;20034;-30
2021/12/22 10:55:39;;;;;;;7.32;3.72;;;;;;;24.57;27.92;97236.28;4988669;28;20069;-30
2021/12/22 10:58:14;;;;;;;7.05;3.70;;;;;;;24.60;27.89;97236.16;4985412;28;20026;-34
2021/12/22 11:00:39;;;;;;;10.55;5.00;;;;;;;24.61;27.71;97238.72;4987706;28;20149;-32
2021/12/22 11:03:07;;;;;;;13.32;3.95;;;;;;;24.63;28.03;97228.16;4987459;28;20765;-29
2021/12/22 11:05:48;;;;;;;7.85;4.03;;;;;;;24.63;27.98;97221.16;4987849;28;20096;-32
2021/12/22 11:08:21;;;;;;;11.02;3.90;;;;;;;24.64;27.98;97211.53;4964585;28;20026;-29
2021/12/22 11:10:47;;;;;;;7.97;3.40;;;;;;;24.65;28.11;97208.00;4972032;28;20030;-31
2021/12/22 11:13:14;;;;;;;8.55;3.53;;;;;;;24.65;28.25;97202.75;4987831;28;20209;-29
2021/12/22 11:15:41;;;;;;;9.70;3.10;;;;;;;24.67;28.29;97204.41;4955823;28;20033;-30
2021/12/22 11:18:10;;;;;;;12.27;3.53;;;;;;;24.69;28.67;97203.47;4982045;28;20032;-31
2021/12/22 11:20:35;;;;;;;9.25;4.03;;;;;;;24.70;28.67;97206.03;4984200;28;20523;-29
2021/12/22 11:23:04;;;;;;;14.65;3.60;;;;;;;24.70;28.91;97198.16;4962608;28;20038;-26
2021/12/22 11:25:29;;;;;;;12.25;3.30;;;;;;;24.72;29.00;97188.50;4963797;28;20072;-29
2021/12/22 11:27:55;;;;;;;6.80;3.05;;;;;;;24.73;29.04;97195.44;4980113;28;20512;-32
2021/12/22 11:30:22;;;;;;;7.35;3.38;;;;;;;24.75;29.35;97193.59;4983633;28;20265;-30
2021/12/22 11:32:47;;;;;;;7.32;3.00;;;;;;;24.77;29.16;97191.75;4982500;28;20101;-34
2021/12/22 11:35:13;;;;;;;11.13;4.00;;;;;;;24.79;29.31;97192.53;4963369;28;20034;-32
2021/12/22 11:37:38;;;;;;;11.25;4.80;;;;;;;24.81;29.50;97187.22;4979327;28;20045;-28
2021/12/22 11:40:08;;;;;;;10.27;4.18;;;;;;;24.84;29.42;97186.28;4978478;28;20036;-30
2021/12/22 11:42:37;;;;;;;12.38;4.43;;;;;;;24.86;29.62;97189.72;4980351;28;20227;-29
2021/12/22 11:45:16;;;;;;;10.90;4.93;;;;;;;24.88;29.60;97188.72;4980928;28;20065;-29
2021/12/22 11:47:43;;;;;;;11.77;5.50;;;;;;;24.90;29.54;97188.66;4980032;28;20666;-27